sensor_id;sensor_type;location;lat;lon;timestamp;temperature;humidity
33269;DHT22;19640;50.944;5.260;2023-07-13T00:01:45;16.60;99.90
33269;DHT22;19640;50.944;5.260;2023-07-13T00:04:16;16.50;99.90
33269;DHT22;19640;50.944;5.260;2023-07-13T00:06:41;16.60;99.90
33269;DHT22;19640;50.944;5.260;2023-07-13T00:09:12;16.60;99.90
33269;DHT22;19640;50.944;5.260;2023-07-13T00:11:38;16.50;99.90
33269;DHT22;19640;50.944;5.260;2023-07-13T00:14:04;16.40;99.90
33269;DHT22;19640;50.944;5.260;2023-07-13T00:16:30;16.30;99.90
33269;DHT22;19640;50.944;5.260;2023-07-13T00:18:55;16.40;99.90
33269;DHT22;19640;50.944;5.260;2023-07-13T00:21:21;16.20;99.90
33269;DHT22;19640;50.944;5.260;2023-07-13T00:23:47;16.30;99.90
33269;DHT22;19640;50.944;5.260;2023-07-13T00:26:13;16.40;99.90
33269;DHT22;19640;50.944;5.260;2023-07-13T00:28:40;16.20;99.90
33269;DHT22;19640;50.944;5.260;2023-07-13T00:31:08;16.20;99.90
33269;DHT22;19640;50.944;5.260;2023-07-13T00:33:34;16.20;99.90
33269;DHT22;19640;50.944;5.260;2023-07-13T00:36:00;16.00;99.90
33269;DHT22;19640;50.944;5.260;2023-07-13T00:38:25;16.10;99.90
33269;DHT22;19640;50.944;5.260;2023-07-13T00:40:51;16.10;99.90
33269;DHT22;19640;50.944;5.260;2023-07-13T00:43:20;15.80;99.90
33269;DHT22;19640;50.944;5.260;2023-07-13T00:48:18;15.60;99.90
33269;DHT22;19640;50.944;5.260;2023-07-13T00:50:46;15.70;99.90
33269;DHT22;19640;50.944;5.260;2023-07-13T00:53:13;15.80;99.90
33269;DHT22;19640;50.944;5.260;2023-07-13T00:55:39;15.90;99.90
33269;DHT22;19640;50.944;5.260;2023-07-13T00:58:06;15.90;99.90
33269;DHT22;19640;50.944;5.260;2023-07-13T01:00:36;15.90;99.90
33269;DHT22;19640;50.944;5.260;2023-07-13T01:03:03;15.80;99.90
33269;DHT22;19640;50.944;5.260;2023-07-13T01:05:31;15.90;99.90
33269;DHT22;19640;50.944;5.260;2023-07-13T01:07:59;16.00;99.90
33269;DHT22;19640;50.944;5.260;2023-07-13T01:10:26;15.90;99.90
33269;DHT22;19640;50.944;5.260;2023-07-13T01:12:53;15.90;99.90
33269;DHT22;19640;50.944;5.260;2023-07-13T01:15:46;15.90;99.90
33269;DHT22;19640;50.944;5.260;2023-07-13T01:18:21;16.00;99.90
33269;DHT22;19640;50.944;5.260;2023-07-13T01:21:04;16.00;99.90
33269;DHT22;19640;50.944;5.260;2023-07-13T01:23:31;15.90;99.90
33269;DHT22;19640;50.944;5.260;2023-07-13T01:25:58;15.90;99.90
33269;DHT22;19640;50.944;5.260;2023-07-13T01:28:25;15.80;99.90
33269;DHT22;19640;50.944;5.260;2023-07-13T01:30:53;15.70;99.90
33269;DHT22;19640;50.944;5.260;2023-07-13T01:33:20;15.80;99.90
33269;DHT22;19640;50.944;5.260;2023-07-13T01:35:47;16.00;99.90
33269;DHT22;19640;50.944;5.260;2023-07-13T01:38:16;15.90;99.90
33269;DHT22;19640;50.944;5.260;2023-07-13T01:40:43;15.90;99.90
33269;DHT22;19640;50.944;5.260;2023-07-13T01:43:09;15.70;99.90
33269;DHT22;19640;50.944;5.260;2023-07-13T01:45:35;15.60;99.90
33269;DHT22;19640;50.944;5.260;2023-07-13T01:48:01;15.60;99.90
33269;DHT22;19640;50.944;5.260;2023-07-13T01:50:27;15.50;99.90
33269;DHT22;19640;50.944;5.260;2023-07-13T01:52:53;15.60;99.90
33269;DHT22;19640;50.944;5.260;2023-07-13T01:55:20;15.60;99.90
33269;DHT22;19640;50.944;5.260;2023-07-13T01:57:46;15.80;99.90
33269;DHT22;19640;50.944;5.260;2023-07-13T02:00:13;15.80;99.90
33269;DHT22;19640;50.944;5.260;2023-07-13T02:02:38;15.70;99.90
33269;DHT22;19640;50.944;5.260;2023-07-13T02:05:05;15.60;99.90
33269;DHT22;19640;50.944;5.260;2023-07-13T02:07:31;15.80;99.90
33269;DHT22;19640;50.944;5.260;2023-07-13T02:09:56;15.80;99.90
33269;DHT22;19640;50.944;5.260;2023-07-13T02:12:22;15.70;99.90
33269;DHT22;19640;50.944;5.260;2023-07-13T02:14:47;15.60;99.90
33269;DHT22;19640;50.944;5.260;2023-07-13T02:17:13;15.50;99.90
33269;DHT22;19640;50.944;5.260;2023-07-13T02:19:39;15.60;99.90
33269;DHT22;19640;50.944;5.260;2023-07-13T02:22:05;15.60;99.90
33269;DHT22;19640;50.944;5.260;2023-07-13T02:24:31;15.70;99.90
33269;DHT22;19640;50.944;5.260;2023-07-13T02:26:57;15.40;99.90
33269;DHT22;19640;50.944;5.260;2023-07-13T02:29:23;15.40;99.90
33269;DHT22;19640;50.944;5.260;2023-07-13T02:31:49;15.50;99.90
33269;DHT22;19640;50.944;5.260;2023-07-13T02:34:14;15.50;99.90
33269;DHT22;19640;50.944;5.260;2023-07-13T02:36:40;15.40;99.90
33269;DHT22;19640;50.944;5.260;2023-07-13T02:39:06;15.50;99.90
33269;DHT22;19640;50.944;5.260;2023-07-13T02:41:32;15.30;99.90
33269;DHT22;19640;50.944;5.260;2023-07-13T02:43:58;15.40;99.90
33269;DHT22;19640;50.944;5.260;2023-07-13T02:46:33;15.50;99.90
33269;DHT22;19640;50.944;5.260;2023-07-13T02:48:59;15.60;99.90
33269;DHT22;19640;50.944;5.260;2023-07-13T02:51:25;15.60;99.90
33269;DHT22;19640;50.944;5.260;2023-07-13T02:53:51;15.40;99.90
33269;DHT22;19640;50.944;5.260;2023-07-13T02:56:23;15.30;99.90
33269;DHT22;19640;50.944;5.260;2023-07-13T02:58:49;15.20;99.90
33269;DHT22;19640;50.944;5.260;2023-07-13T03:01:15;15.20;99.90
33269;DHT22;19640;50.944;5.260;2023-07-13T03:03:43;15.20;99.90
33269;DHT22;19640;50.944;5.260;2023-07-13T03:06:09;15.20;99.90
33269;DHT22;19640;50.944;5.260;2023-07-13T03:08:35;15.20;99.90
33269;DHT22;19640;50.944;5.260;2023-07-13T03:11:10;15.40;99.90
33269;DHT22;19640;50.944;5.260;2023-07-13T03:13:37;15.40;99.90
33269;DHT22;19640;50.944;5.260;2023-07-13T03:16:03;15.30;99.90
33269;DHT22;19640;50.944;5.260;2023-07-13T03:18:30;15.30;99.90
33269;DHT22;19640;50.944;5.260;2023-07-13T03:20:55;15.10;99.90
33269;DHT22;19640;50.944;5.260;2023-07-13T03:23:22;15.10;99.90
33269;DHT22;19640;50.944;5.260;2023-07-13T03:25:48;15.10;99.90
33269;DHT22;19640;50.944;5.260;2023-07-13T03:28:15;15.20;99.90
33269;DHT22;19640;50.944;5.260;2023-07-13T03:30:41;15.00;99.90
33269;DHT22;19640;50.944;5.260;2023-07-13T03:33:07;15.10;99.90
33269;DHT22;19640;50.944;5.260;2023-07-13T03:35:34;15.20;99.90
33269;DHT22;19640;50.944;5.260;2023-07-13T03:38:00;15.00;99.90
33269;DHT22;19640;50.944;5.260;2023-07-13T03:40:27;15.10;99.90
33269;DHT22;19640;50.944;5.260;2023-07-13T03:42:53;15.20;99.90
33269;DHT22;19640;50.944;5.260;2023-07-13T03:45:19;15.20;99.90
33269;DHT22;19640;50.944;5.260;2023-07-13T03:47:47;15.20;99.90
33269;DHT22;19640;50.944;5.260;2023-07-13T03:50:12;15.30;99.90
33269;DHT22;19640;50.944;5.260;2023-07-13T03:52:38;15.20;99.90
33269;DHT22;19640;50.944;5.260;2023-07-13T03:55:04;15.30;99.90
33269;DHT22;19640;50.944;5.260;2023-07-13T03:57:31;15.30;99.90
33269;DHT22;19640;50.944;5.260;2023-07-13T03:59:56;15.30;99.90
33269;DHT22;19640;50.944;5.260;2023-07-13T04:02:22;15.40;99.90
33269;DHT22;19640;50.944;5.260;2023-07-13T04:04:48;15.50;99.90
33269;DHT22;19640;50.944;5.260;2023-07-13T04:07:13;15.60;99.90
33269;DHT22;19640;50.944;5.260;2023-07-13T04:09:39;15.40;99.90
33269;DHT22;19640;50.944;5.260;2023-07-13T04:12:05;15.50;99.90
33269;DHT22;19640;50.944;5.260;2023-07-13T04:14:32;15.50;99.90
33269;DHT22;19640;50.944;5.260;2023-07-13T04:16:58;15.60;99.90
33269;DHT22;19640;50.944;5.260;2023-07-13T04:19:24;15.70;99.90
33269;DHT22;19640;50.944;5.260;2023-07-13T04:21:49;15.70;99.90
33269;DHT22;19640;50.944;5.260;2023-07-13T04:24:15;15.70;99.90
33269;DHT22;19640;50.944;5.260;2023-07-13T04:26:40;15.80;99.90
33269;DHT22;19640;50.944;5.260;2023-07-13T04:29:07;15.90;99.90
33269;DHT22;19640;50.944;5.260;2023-07-13T04:31:33;15.70;99.90
33269;DHT22;19640;50.944;5.260;2023-07-13T04:33:59;15.90;99.90
33269;DHT22;19640;50.944;5.260;2023-07-13T04:36:25;16.00;99.90
33269;DHT22;19640;50.944;5.260;2023-07-13T04:38:54;16.00;99.90
33269;DHT22;19640;50.944;5.260;2023-07-13T04:41:20;16.00;99.90
33269;DHT22;19640;50.944;5.260;2023-07-13T04:43:48;16.20;99.90
33269;DHT22;19640;50.944;5.260;2023-07-13T04:46:16;16.30;99.90
33269;DHT22;19640;50.944;5.260;2023-07-13T04:48:44;16.10;99.90
33269;DHT22;19640;50.944;5.260;2023-07-13T04:51:10;16.00;99.90
33269;DHT22;19640;50.944;5.260;2023-07-13T04:53:36;16.00;99.90
33269;DHT22;19640;50.944;5.260;2023-07-13T04:56:03;16.10;99.90
33269;DHT22;19640;50.944;5.260;2023-07-13T04:58:29;16.00;99.90
33269;DHT22;19640;50.944;5.260;2023-07-13T05:01:03;16.10;99.90
33269;DHT22;19640;50.944;5.260;2023-07-13T05:03:29;16.20;99.90
33269;DHT22;19640;50.944;5.260;2023-07-13T05:05:57;16.20;99.90
33269;DHT22;19640;50.944;5.260;2023-07-13T05:08:23;16.30;99.90
33269;DHT22;19640;50.944;5.260;2023-07-13T05:10:49;16.40;99.90
33269;DHT22;19640;50.944;5.260;2023-07-13T05:13:15;16.20;99.90
33269;DHT22;19640;50.944;5.260;2023-07-13T05:15:40;16.20;99.90
33269;DHT22;19640;50.944;5.260;2023-07-13T05:18:06;16.30;99.90
33269;DHT22;19640;50.944;5.260;2023-07-13T05:20:31;16.30;99.90
33269;DHT22;19640;50.944;5.260;2023-07-13T05:22:57;16.10;99.90
33269;DHT22;19640;50.944;5.260;2023-07-13T05:25:23;16.20;99.90
33269;DHT22;19640;50.944;5.260;2023-07-13T05:27:49;16.50;99.90
33269;DHT22;19640;50.944;5.260;2023-07-13T05:30:15;16.70;99.90
33269;DHT22;19640;50.944;5.260;2023-07-13T05:32:41;16.90;99.90
33269;DHT22;19640;50.944;5.260;2023-07-13T05:35:07;16.70;99.90
33269;DHT22;19640;50.944;5.260;2023-07-13T05:37:33;16.80;99.90
33269;DHT22;19640;50.944;5.260;2023-07-13T05:39:59;16.60;99.90
33269;DHT22;19640;50.944;5.260;2023-07-13T05:42:24;16.70;99.90
33269;DHT22;19640;50.944;5.260;2023-07-13T05:44:50;16.80;99.90
33269;DHT22;19640;50.944;5.260;2023-07-13T05:47:15;16.90;99.90
33269;DHT22;19640;50.944;5.260;2023-07-13T05:49:41;17.00;99.90
33269;DHT22;19640;50.944;5.260;2023-07-13T05:52:07;16.90;99.90
33269;DHT22;19640;50.944;5.260;2023-07-13T05:54:33;16.90;99.90
33269;DHT22;19640;50.944;5.260;2023-07-13T05:56:58;16.80;99.90
33269;DHT22;19640;50.944;5.260;2023-07-13T05:59:24;16.80;99.90
33269;DHT22;19640;50.944;5.260;2023-07-13T06:01:50;16.80;99.90
33269;DHT22;19640;50.944;5.260;2023-07-13T06:04:18;16.90;99.90
33269;DHT22;19640;50.944;5.260;2023-07-13T06:06:44;16.70;99.90
33269;DHT22;19640;50.944;5.260;2023-07-13T06:09:10;16.70;99.90
33269;DHT22;19640;50.944;5.260;2023-07-13T06:11:35;16.80;99.90
33269;DHT22;19640;50.944;5.260;2023-07-13T06:14:01;16.90;99.90
33269;DHT22;19640;50.944;5.260;2023-07-13T06:16:27;17.10;99.90
33269;DHT22;19640;50.944;5.260;2023-07-13T06:18:52;17.20;99.90
33269;DHT22;19640;50.944;5.260;2023-07-13T06:21:20;17.30;99.90
33269;DHT22;19640;50.944;5.260;2023-07-13T06:23:47;17.40;99.90
33269;DHT22;19640;50.944;5.260;2023-07-13T06:26:17;17.60;99.90
33269;DHT22;19640;50.944;5.260;2023-07-13T06:28:43;17.60;99.90
33269;DHT22;19640;50.944;5.260;2023-07-13T06:31:11;17.80;99.90
33269;DHT22;19640;50.944;5.260;2023-07-13T06:33:37;17.90;99.90
33269;DHT22;19640;50.944;5.260;2023-07-13T06:36:04;17.80;99.90
33269;DHT22;19640;50.944;5.260;2023-07-13T06:38:30;17.90;99.90
33269;DHT22;19640;50.944;5.260;2023-07-13T06:40:56;18.10;99.90
33269;DHT22;19640;50.944;5.260;2023-07-13T06:43:22;18.10;99.90
33269;DHT22;19640;50.944;5.260;2023-07-13T06:45:48;18.00;99.90
33269;DHT22;19640;50.944;5.260;2023-07-13T06:48:19;18.10;99.90
33269;DHT22;19640;50.944;5.260;2023-07-13T06:50:45;18.10;99.90
33269;DHT22;19640;50.944;5.260;2023-07-13T06:53:11;18.40;99.90
33269;DHT22;19640;50.944;5.260;2023-07-13T06:55:38;18.60;99.90
33269;DHT22;19640;50.944;5.260;2023-07-13T06:58:04;18.60;99.90
33269;DHT22;19640;50.944;5.260;2023-07-13T07:00:29;18.50;99.90
33269;DHT22;19640;50.944;5.260;2023-07-13T07:02:55;18.50;99.90
33269;DHT22;19640;50.944;5.260;2023-07-13T07:05:21;18.80;99.90
33269;DHT22;19640;50.944;5.260;2023-07-13T07:07:49;18.90;99.90
33269;DHT22;19640;50.944;5.260;2023-07-13T07:10:15;19.00;99.90
33269;DHT22;19640;50.944;5.260;2023-07-13T07:12:40;19.00;99.90
33269;DHT22;19640;50.944;5.260;2023-07-13T07:15:06;19.00;99.90
33269;DHT22;19640;50.944;5.260;2023-07-13T07:17:32;19.10;99.90
33269;DHT22;19640;50.944;5.260;2023-07-13T07:19:58;18.80;99.90
33269;DHT22;19640;50.944;5.260;2023-07-13T07:22:23;18.80;99.90
33269;DHT22;19640;50.944;5.260;2023-07-13T07:24:52;18.70;99.90
33269;DHT22;19640;50.944;5.260;2023-07-13T07:27:18;18.80;99.90
33269;DHT22;19640;50.944;5.260;2023-07-13T07:29:44;18.70;99.90
33269;DHT22;19640;50.944;5.260;2023-07-13T07:32:09;19.00;99.90
33269;DHT22;19640;50.944;5.260;2023-07-13T07:34:35;19.00;99.90
33269;DHT22;19640;50.944;5.260;2023-07-13T07:37:01;18.80;99.90
33269;DHT22;19640;50.944;5.260;2023-07-13T07:39:27;18.80;99.90
33269;DHT22;19640;50.944;5.260;2023-07-13T07:41:53;18.80;99.90
33269;DHT22;19640;50.944;5.260;2023-07-13T07:44:19;19.10;99.90
33269;DHT22;19640;50.944;5.260;2023-07-13T07:46:44;19.30;99.90
33269;DHT22;19640;50.944;5.260;2023-07-13T07:49:10;19.30;99.90
33269;DHT22;19640;50.944;5.260;2023-07-13T07:51:36;19.30;99.90
33269;DHT22;19640;50.944;5.260;2023-07-13T07:54:03;19.50;99.90
33269;DHT22;19640;50.944;5.260;2023-07-13T07:56:29;19.60;99.90
33269;DHT22;19640;50.944;5.260;2023-07-13T07:58:54;19.70;99.90
33269;DHT22;19640;50.944;5.260;2023-07-13T08:01:20;19.70;99.90
33269;DHT22;19640;50.944;5.260;2023-07-13T08:03:46;20.00;99.90
33269;DHT22;19640;50.944;5.260;2023-07-13T08:06:13;20.30;99.90
33269;DHT22;19640;50.944;5.260;2023-07-13T08:08:39;20.30;99.90
33269;DHT22;19640;50.944;5.260;2023-07-13T08:11:05;20.50;99.90
33269;DHT22;19640;50.944;5.260;2023-07-13T08:13:33;20.50;99.90
33269;DHT22;19640;50.944;5.260;2023-07-13T08:15:59;20.10;99.90
33269;DHT22;19640;50.944;5.260;2023-07-13T08:18:25;20.30;99.90
33269;DHT22;19640;50.944;5.260;2023-07-13T08:20:50;20.50;99.90
33269;DHT22;19640;50.944;5.260;2023-07-13T08:23:17;20.70;99.90
33269;DHT22;19640;50.944;5.260;2023-07-13T08:25:49;20.50;99.90
33269;DHT22;19640;50.944;5.260;2023-07-13T08:28:15;20.40;99.90
33269;DHT22;19640;50.944;5.260;2023-07-13T08:30:41;20.40;99.90
33269;DHT22;19640;50.944;5.260;2023-07-13T08:33:07;20.50;99.90
33269;DHT22;19640;50.944;5.260;2023-07-13T08:35:33;20.40;99.90
33269;DHT22;19640;50.944;5.260;2023-07-13T08:37:58;20.70;99.90
33269;DHT22;19640;50.944;5.260;2023-07-13T08:40:27;20.50;99.90
33269;DHT22;19640;50.944;5.260;2023-07-13T08:42:55;20.40;99.90
33269;DHT22;19640;50.944;5.260;2023-07-13T08:51:09;20.90;99.90
33269;DHT22;19640;50.944;5.260;2023-07-13T08:53:40;20.80;99.90
33269;DHT22;19640;50.944;5.260;2023-07-13T08:56:16;20.80;99.90
33269;DHT22;19640;50.944;5.260;2023-07-13T08:58:43;20.90;99.90
33269;DHT22;19640;50.944;5.260;2023-07-13T09:04:07;20.90;99.90
33269;DHT22;19640;50.944;5.260;2023-07-13T09:06:56;21.30;99.90
33269;DHT22;19640;50.944;5.260;2023-07-13T09:09:56;21.30;99.90
33269;DHT22;19640;50.944;5.260;2023-07-13T09:15:05;21.60;99.90
33269;DHT22;19640;50.944;5.260;2023-07-13T09:17:49;21.60;99.90
33269;DHT22;19640;50.944;5.260;2023-07-13T09:22:51;21.50;99.90
33269;DHT22;19640;50.944;5.260;2023-07-13T09:25:30;21.80;99.90
33269;DHT22;19640;50.944;5.260;2023-07-13T09:28:02;21.90;99.90
33269;DHT22;19640;50.944;5.260;2023-07-13T09:30:46;22.00;99.90
33269;DHT22;19640;50.944;5.260;2023-07-13T09:33:17;22.20;99.90
33269;DHT22;19640;50.944;5.260;2023-07-13T09:35:42;22.00;99.90
33269;DHT22;19640;50.944;5.260;2023-07-13T09:38:12;21.70;99.90
33269;DHT22;19640;50.944;5.260;2023-07-13T09:43:36;21.40;99.90
33269;DHT22;19640;50.944;5.260;2023-07-13T09:46:02;21.10;99.90
33269;DHT22;19640;50.944;5.260;2023-07-13T09:48:39;21.00;99.90
33269;DHT22;19640;50.944;5.260;2023-07-13T09:51:12;21.20;99.90
33269;DHT22;19640;50.944;5.260;2023-07-13T09:53:41;21.20;99.90
33269;DHT22;19640;50.944;5.260;2023-07-13T09:56:22;21.50;99.90
33269;DHT22;19640;50.944;5.260;2023-07-13T09:58:48;21.90;99.90
33269;DHT22;19640;50.944;5.260;2023-07-13T10:01:14;22.30;99.90
33269;DHT22;19640;50.944;5.260;2023-07-13T10:03:52;22.50;99.90
33269;DHT22;19640;50.944;5.260;2023-07-13T10:06:20;22.50;99.90
33269;DHT22;19640;50.944;5.260;2023-07-13T10:08:48;22.50;99.90
33269;DHT22;19640;50.944;5.260;2023-07-13T10:11:20;22.90;99.90
33269;DHT22;19640;50.944;5.260;2023-07-13T10:13:57;23.10;99.90
33269;DHT22;19640;50.944;5.260;2023-07-13T10:16:27;22.90;99.90
33269;DHT22;19640;50.944;5.260;2023-07-13T10:19:00;22.50;99.90
33269;DHT22;19640;50.944;5.260;2023-07-13T10:21:32;22.50;99.90
33269;DHT22;19640;50.944;5.260;2023-07-13T10:26:32;22.60;99.90
33269;DHT22;19640;50.944;5.260;2023-07-13T10:29:09;22.30;99.90
33269;DHT22;19640;50.944;5.260;2023-07-13T10:31:38;22.30;99.90
33269;DHT22;19640;50.944;5.260;2023-07-13T10:34:04;22.30;99.90
33269;DHT22;19640;50.944;5.260;2023-07-13T10:39:05;22.90;99.90
33269;DHT22;19640;50.944;5.260;2023-07-13T10:41:35;22.90;99.90
33269;DHT22;19640;50.944;5.260;2023-07-13T10:44:03;22.60;99.90
33269;DHT22;19640;50.944;5.260;2023-07-13T10:46:30;22.20;99.90
33269;DHT22;19640;50.944;5.260;2023-07-13T10:49:02;21.80;99.90
33269;DHT22;19640;50.944;5.260;2023-07-13T10:51:30;21.50;99.90
33269;DHT22;19640;50.944;5.260;2023-07-13T10:54:19;21.70;99.90
33269;DHT22;19640;50.944;5.260;2023-07-13T10:56:51;22.00;99.90
33269;DHT22;19640;50.944;5.260;2023-07-13T10:59:28;22.40;99.90
33269;DHT22;19640;50.944;5.260;2023-07-13T11:01:56;22.60;99.90
33269;DHT22;19640;50.944;5.260;2023-07-13T11:04:24;22.90;99.90
33269;DHT22;19640;50.944;5.260;2023-07-13T11:06:56;22.90;99.90
33269;DHT22;19640;50.944;5.260;2023-07-13T11:09:32;22.60;99.90
33269;DHT22;19640;50.944;5.260;2023-07-13T11:12:06;22.50;99.90
33269;DHT22;19640;50.944;5.260;2023-07-13T11:15:02;22.60;99.90
33269;DHT22;19640;50.944;5.260;2023-07-13T11:17:51;22.70;99.90
33269;DHT22;19640;50.944;5.260;2023-07-13T11:20:33;23.10;99.90
33269;DHT22;19640;50.944;5.260;2023-07-13T11:25:43;22.90;99.90
33269;DHT22;19640;50.944;5.260;2023-07-13T11:33:24;23.50;99.90
33269;DHT22;19640;50.944;5.260;2023-07-13T11:38:23;23.30;99.90
33269;DHT22;19640;50.944;5.260;2023-07-13T11:40:53;23.40;99.90
33269;DHT22;19640;50.944;5.260;2023-07-13T11:43:19;23.30;99.90
33269;DHT22;19640;50.944;5.260;2023-07-13T11:45:47;23.40;99.90
33269;DHT22;19640;50.944;5.260;2023-07-13T11:48:27;23.30;99.90
33269;DHT22;19640;50.944;5.260;2023-07-13T11:51:04;23.30;99.90
33269;DHT22;19640;50.944;5.260;2023-07-13T11:53:40;23.20;99.90
33269;DHT22;19640;50.944;5.260;2023-07-13T11:56:07;23.40;99.90
33269;DHT22;19640;50.944;5.260;2023-07-13T11:58:33;23.20;99.90
33269;DHT22;19640;50.944;5.260;2023-07-13T12:01:01;23.50;99.90
33269;DHT22;19640;50.944;5.260;2023-07-13T12:03:30;23.70;99.90
33269;DHT22;19640;50.944;5.260;2023-07-13T12:06:05;23.80;99.90
33269;DHT22;19640;50.944;5.260;2023-07-13T12:08:40;23.30;99.70
33269;DHT22;19640;50.944;5.260;2023-07-13T12:11:15;23.20;99.60
33269;DHT22;19640;50.944;5.260;2023-07-13T12:13:41;23.20;98.70
33269;DHT22;19640;50.944;5.260;2023-07-13T12:16:16;23.40;99.90
33269;DHT22;19640;50.944;5.260;2023-07-13T12:18:43;23.60;99.40
33269;DHT22;19640;50.944;5.260;2023-07-13T12:21:17;23.50;99.90
33269;DHT22;19640;50.944;5.260;2023-07-13T12:23:44;23.40;99.90
33269;DHT22;19640;50.944;5.260;2023-07-13T12:26:11;23.30;99.90
33269;DHT22;19640;50.944;5.260;2023-07-13T12:28:47;23.40;99.90
33269;DHT22;19640;50.944;5.260;2023-07-13T12:34:10;24.30;99.90
33269;DHT22;19640;50.944;5.260;2023-07-13T12:37:00;24.20;99.20
33269;DHT22;19640;50.944;5.260;2023-07-13T12:39:37;24.20;99.90
33269;DHT22;19640;50.944;5.260;2023-07-13T12:42:26;24.20;99.60
33269;DHT22;19640;50.944;5.260;2023-07-13T12:45:00;23.30;99.50
33269;DHT22;19640;50.944;5.260;2023-07-13T12:47:27;23.20;99.90
33269;DHT22;19640;50.944;5.260;2023-07-13T12:49:58;23.50;99.90
33269;DHT22;19640;50.944;5.260;2023-07-13T12:52:33;23.60;99.40
33269;DHT22;19640;50.944;5.260;2023-07-13T12:55:05;23.40;99.90
33269;DHT22;19640;50.944;5.260;2023-07-13T12:57:31;23.50;99.40
33269;DHT22;19640;50.944;5.260;2023-07-13T12:59:57;23.40;99.90
33269;DHT22;19640;50.944;5.260;2023-07-13T13:02:43;23.40;98.90
33269;DHT22;19640;50.944;5.260;2023-07-13T13:05:12;23.00;99.00
33269;DHT22;19640;50.944;5.260;2023-07-13T13:07:42;22.70;98.80
33269;DHT22;19640;50.944;5.260;2023-07-13T13:10:13;22.50;99.00
33269;DHT22;19640;50.944;5.260;2023-07-13T13:12:40;22.60;99.60
33269;DHT22;19640;50.944;5.260;2023-07-13T13:15:08;22.80;99.70
33269;DHT22;19640;50.944;5.260;2023-07-13T13:17:35;22.60;99.40
33269;DHT22;19640;50.944;5.260;2023-07-13T13:20:01;22.70;99.30
33269;DHT22;19640;50.944;5.260;2023-07-13T13:22:26;22.70;99.90
33269;DHT22;19640;50.944;5.260;2023-07-13T13:24:52;22.20;99.90
33269;DHT22;19640;50.944;5.260;2023-07-13T13:27:20;21.80;99.90
33269;DHT22;19640;50.944;5.260;2023-07-13T13:29:49;21.50;99.90
33269;DHT22;19640;50.944;5.260;2023-07-13T13:32:18;21.00;99.90
33269;DHT22;19640;50.944;5.260;2023-07-13T13:34:44;20.60;99.90
33269;DHT22;19640;50.944;5.260;2023-07-13T13:37:36;20.30;99.90
33269;DHT22;19640;50.944;5.260;2023-07-13T13:40:02;20.10;99.90
33269;DHT22;19640;50.944;5.260;2023-07-13T13:42:29;20.00;99.90
33269;DHT22;19640;50.944;5.260;2023-07-13T13:44:55;19.90;99.90
33269;DHT22;19640;50.944;5.260;2023-07-13T13:47:30;19.90;99.90
33269;DHT22;19640;50.944;5.260;2023-07-13T13:49:56;19.90;99.90
33269;DHT22;19640;50.944;5.260;2023-07-13T13:52:23;19.90;99.90
33269;DHT22;19640;50.944;5.260;2023-07-13T13:54:49;19.80;99.90
33269;DHT22;19640;50.944;5.260;2023-07-13T13:57:15;19.70;99.90
33269;DHT22;19640;50.944;5.260;2023-07-13T13:59:41;19.70;99.90
33269;DHT22;19640;50.944;5.260;2023-07-13T14:02:27;19.70;99.90
33269;DHT22;19640;50.944;5.260;2023-07-13T14:04:56;19.90;99.90
33269;DHT22;19640;50.944;5.260;2023-07-13T14:07:22;19.90;99.90
33269;DHT22;19640;50.944;5.260;2023-07-13T14:09:49;20.00;99.90
33269;DHT22;19640;50.944;5.260;2023-07-13T14:12:15;20.10;99.90
33269;DHT22;19640;50.944;5.260;2023-07-13T14:14:41;20.30;99.90
33269;DHT22;19640;50.944;5.260;2023-07-13T14:17:25;20.50;99.90
33269;DHT22;19640;50.944;5.260;2023-07-13T14:19:52;20.70;99.90
33269;DHT22;19640;50.944;5.260;2023-07-13T14:22:26;20.90;99.90
33269;DHT22;19640;50.944;5.260;2023-07-13T14:24:55;21.00;99.90
33269;DHT22;19640;50.944;5.260;2023-07-13T14:27:23;21.00;99.90
33269;DHT22;19640;50.944;5.260;2023-07-13T14:29:49;21.10;99.90
33269;DHT22;19640;50.944;5.260;2023-07-13T14:32:15;21.00;99.90
33269;DHT22;19640;50.944;5.260;2023-07-13T14:34:41;21.20;99.90
33269;DHT22;19640;50.944;5.260;2023-07-13T14:37:13;21.20;99.90
33269;DHT22;19640;50.944;5.260;2023-07-13T14:39:40;21.30;99.90
33269;DHT22;19640;50.944;5.260;2023-07-13T14:42:09;21.30;99.90
33269;DHT22;19640;50.944;5.260;2023-07-13T14:44:35;21.40;99.90
33269;DHT22;19640;50.944;5.260;2023-07-13T14:47:03;21.50;99.90
33269;DHT22;19640;50.944;5.260;2023-07-13T14:52:00;21.60;99.90
33269;DHT22;19640;50.944;5.260;2023-07-13T14:54:26;21.90;99.90
33269;DHT22;19640;50.944;5.260;2023-07-13T14:56:52;21.90;99.90
33269;DHT22;19640;50.944;5.260;2023-07-13T14:59:18;21.90;99.90
33269;DHT22;19640;50.944;5.260;2023-07-13T15:01:45;22.20;99.90
33269;DHT22;19640;50.944;5.260;2023-07-13T15:04:11;22.50;99.90
33269;DHT22;19640;50.944;5.260;2023-07-13T15:09:23;22.90;99.90
33269;DHT22;19640;50.944;5.260;2023-07-13T15:11:54;23.00;99.90
33269;DHT22;19640;50.944;5.260;2023-07-13T15:14:20;23.30;99.90
33269;DHT22;19640;50.944;5.260;2023-07-13T15:16:49;23.30;99.90
33269;DHT22;19640;50.944;5.260;2023-07-13T15:19:16;23.20;99.90
33269;DHT22;19640;50.944;5.260;2023-07-13T15:21:43;23.30;99.90
33269;DHT22;19640;50.944;5.260;2023-07-13T15:24:10;23.50;99.90
33269;DHT22;19640;50.944;5.260;2023-07-13T15:26:36;23.30;99.90
33269;DHT22;19640;50.944;5.260;2023-07-13T15:29:04;22.90;99.90
33269;DHT22;19640;50.944;5.260;2023-07-13T15:31:30;23.10;99.90
33269;DHT22;19640;50.944;5.260;2023-07-13T15:33:58;23.30;99.90
33269;DHT22;19640;50.944;5.260;2023-07-13T15:36:25;23.50;99.90
33269;DHT22;19640;50.944;5.260;2023-07-13T15:38:53;23.50;99.90
33269;DHT22;19640;50.944;5.260;2023-07-13T15:41:26;23.50;99.90
33269;DHT22;19640;50.944;5.260;2023-07-13T15:43:54;23.60;99.90
33269;DHT22;19640;50.944;5.260;2023-07-13T15:46:22;23.80;99.90
33269;DHT22;19640;50.944;5.260;2023-07-13T15:48:49;23.40;99.90
33269;DHT22;19640;50.944;5.260;2023-07-13T15:51:21;23.50;99.90
33269;DHT22;19640;50.944;5.260;2023-07-13T15:53:48;23.80;99.90
33269;DHT22;19640;50.944;5.260;2023-07-13T15:56:20;23.90;99.90
33269;DHT22;19640;50.944;5.260;2023-07-13T15:58:46;23.80;99.90
33269;DHT22;19640;50.944;5.260;2023-07-13T16:01:13;23.60;99.90
33269;DHT22;19640;50.944;5.260;2023-07-13T16:03:39;23.50;99.90
33269;DHT22;19640;50.944;5.260;2023-07-13T16:06:12;23.30;99.90
33269;DHT22;19640;50.944;5.260;2023-07-13T16:08:39;23.00;99.90
33269;DHT22;19640;50.944;5.260;2023-07-13T16:11:15;23.00;99.90
33269;DHT22;19640;50.944;5.260;2023-07-13T16:13:42;23.10;99.90
33269;DHT22;19640;50.944;5.260;2023-07-13T16:16:11;23.20;99.90
33269;DHT22;19640;50.944;5.260;2023-07-13T16:18:37;23.40;99.90
33269;DHT22;19640;50.944;5.260;2023-07-13T16:21:04;23.30;99.90